sensor_id;sensor_type;location;lat;lon;timestamp;P1;durP1;ratioP1;P2;durP2;ratioP2
52414;SDS011;38340;52.964;6.086;2023-07-30T00:01:41;15.43;;;6.50;;
52414;SDS011;38340;52.964;6.086;2023-07-30T00:04:07;15.13;;;6.95;;
52414;SDS011;38340;52.964;6.086;2023-07-30T00:06:32;13.45;;;6.60;;
52414;SDS011;38340;52.964;6.086;2023-07-30T00:08:58;12.20;;;6.13;;
52414;SDS011;38340;52.964;6.086;2023-07-30T00:11:23;17.63;;;6.53;;
52414;SDS011;38340;52.964;6.086;2023-07-30T00:13:49;14.60;;;6.78;;
52414;SDS011;38340;52.964;6.086;2023-07-30T00:16:15;18.35;;;7.65;;
52414;SDS011;38340;52.964;6.086;2023-07-30T00:18:41;15.00;;;6.50;;
52414;SDS011;38340;52.964;6.086;2023-07-30T00:21:06;13.18;;;5.90;;
52414;SDS011;38340;52.964;6.086;2023-07-30T00:23:32;15.38;;;5.85;;
52414;SDS011;38340;52.964;6.086;2023-07-30T00:25:58;14.05;;;6.43;;
52414;SDS011;38340;52.964;6.086;2023-07-30T00:28:23;17.58;;;7.03;;
52414;SDS011;38340;52.964;6.086;2023-07-30T00:30:49;18.48;;;7.15;;
52414;SDS011;38340;52.964;6.086;2023-07-30T00:33:14;18.38;;;6.95;;
52414;SDS011;38340;52.964;6.086;2023-07-30T00:35:40;15.95;;;7.10;;
52414;SDS011;38340;52.964;6.086;2023-07-30T00:38:06;14.05;;;6.90;;
52414;SDS011;38340;52.964;6.086;2023-07-30T00:40:32;18.45;;;6.85;;
52414;SDS011;38340;52.964;6.086;2023-07-30T00:42:58;20.63;;;6.95;;
52414;SDS011;38340;52.964;6.086;2023-07-30T00:45:23;16.85;;;7.43;;
52414;SDS011;38340;52.964;6.086;2023-07-30T00:47:49;14.43;;;6.45;;
52414;SDS011;38340;52.964;6.086;2023-07-30T00:50:15;16.65;;;6.28;;
52414;SDS011;38340;52.964;6.086;2023-07-30T00:52:42;19.65;;;7.20;;
52414;SDS011;38340;52.964;6.086;2023-07-30T00:55:08;22.10;;;6.60;;
52414;SDS011;38340;52.964;6.086;2023-07-30T00:57:35;15.88;;;6.30;;
52414;SDS011;38340;52.964;6.086;2023-07-30T01:00:02;17.92;;;8.02;;
52414;SDS011;38340;52.964;6.086;2023-07-30T01:02:31;16.95;;;6.47;;
52414;SDS011;38340;52.964;6.086;2023-07-30T01:04:57;18.98;;;7.10;;
52414;SDS011;38340;52.964;6.086;2023-07-30T01:07:25;22.77;;;7.68;;
52414;SDS011;38340;52.964;6.086;2023-07-30T01:09:51;20.88;;;7.55;;
52414;SDS011;38340;52.964;6.086;2023-07-30T01:12:17;13.13;;;6.47;;
52414;SDS011;38340;52.964;6.086;2023-07-30T01:14:43;17.77;;;6.55;;
52414;SDS011;38340;52.964;6.086;2023-07-30T01:17:11;22.58;;;6.90;;
52414;SDS011;38340;52.964;6.086;2023-07-30T01:19:37;18.90;;;7.55;;
52414;SDS011;38340;52.964;6.086;2023-07-30T01:22:03;22.02;;;7.72;;
52414;SDS011;38340;52.964;6.086;2023-07-30T01:24:29;16.40;;;5.80;;
52414;SDS011;38340;52.964;6.086;2023-07-30T01:26:55;16.23;;;7.03;;
52414;SDS011;38340;52.964;6.086;2023-07-30T01:29:32;15.55;;;6.72;;
52414;SDS011;38340;52.964;6.086;2023-07-30T01:32:12;16.20;;;6.35;;
52414;SDS011;38340;52.964;6.086;2023-07-30T01:34:39;20.67;;;8.32;;
52414;SDS011;38340;52.964;6.086;2023-07-30T01:37:07;23.10;;;6.88;;
52414;SDS011;38340;52.964;6.086;2023-07-30T01:39:37;20.50;;;6.50;;
52414;SDS011;38340;52.964;6.086;2023-07-30T01:42:04;19.85;;;7.40;;
52414;SDS011;38340;52.964;6.086;2023-07-30T01:44:30;23.48;;;7.50;;
52414;SDS011;38340;52.964;6.086;2023-07-30T01:46:56;24.98;;;8.02;;
52414;SDS011;38340;52.964;6.086;2023-07-30T01:49:22;22.13;;;7.32;;
52414;SDS011;38340;52.964;6.086;2023-07-30T01:51:48;23.48;;;6.72;;
52414;SDS011;38340;52.964;6.086;2023-07-30T01:54:14;25.98;;;6.95;;
52414;SDS011;38340;52.964;6.086;2023-07-30T01:56:40;19.10;;;6.22;;
52414;SDS011;38340;52.964;6.086;2023-07-30T01:59:05;27.85;;;7.25;;
52414;SDS011;38340;52.964;6.086;2023-07-30T02:01:31;18.67;;;7.05;;
52414;SDS011;38340;52.964;6.086;2023-07-30T02:03:57;20.15;;;6.95;;
52414;SDS011;38340;52.964;6.086;2023-07-30T02:06:22;20.30;;;6.63;;
52414;SDS011;38340;52.964;6.086;2023-07-30T02:08:48;17.80;;;6.10;;
52414;SDS011;38340;52.964;6.086;2023-07-30T02:11:14;25.73;;;6.82;;
52414;SDS011;38340;52.964;6.086;2023-07-30T02:13:39;24.25;;;8.13;;
52414;SDS011;38340;52.964;6.086;2023-07-30T02:16:05;21.55;;;6.30;;
52414;SDS011;38340;52.964;6.086;2023-07-30T02:18:30;24.73;;;6.45;;
52414;SDS011;38340;52.964;6.086;2023-07-30T02:20:56;20.92;;;5.63;;
52414;SDS011;38340;52.964;6.086;2023-07-30T02:23:22;20.58;;;6.85;;
52414;SDS011;38340;52.964;6.086;2023-07-30T02:25:47;21.02;;;6.85;;
52414;SDS011;38340;52.964;6.086;2023-07-30T02:28:13;19.60;;;6.47;;
52414;SDS011;38340;52.964;6.086;2023-07-30T02:30:39;20.55;;;6.55;;
52414;SDS011;38340;52.964;6.086;2023-07-30T02:33:04;18.77;;;5.82;;
52414;SDS011;38340;52.964;6.086;2023-07-30T02:35:30;20.40;;;7.13;;
52414;SDS011;38340;52.964;6.086;2023-07-30T02:37:56;20.73;;;6.28;;
52414;SDS011;38340;52.964;6.086;2023-07-30T02:40:21;31.05;;;7.47;;
52414;SDS011;38340;52.964;6.086;2023-07-30T02:42:47;20.95;;;5.78;;
52414;SDS011;38340;52.964;6.086;2023-07-30T02:45:13;25.88;;;6.78;;
52414;SDS011;38340;52.964;6.086;2023-07-30T02:47:38;21.30;;;6.95;;
52414;SDS011;38340;52.964;6.086;2023-07-30T02:50:04;24.83;;;6.63;;
52414;SDS011;38340;52.964;6.086;2023-07-30T02:52:31;18.52;;;6.68;;
52414;SDS011;38340;52.964;6.086;2023-07-30T02:54:56;21.20;;;5.88;;
52414;SDS011;38340;52.964;6.086;2023-07-30T02:57:22;17.95;;;5.47;;
52414;SDS011;38340;52.964;6.086;2023-07-30T02:59:48;17.58;;;6.45;;
52414;SDS011;38340;52.964;6.086;2023-07-30T03:02:14;21.13;;;6.22;;
52414;SDS011;38340;52.964;6.086;2023-07-30T03:04:39;15.63;;;6.40;;
52414;SDS011;38340;52.964;6.086;2023-07-30T03:07:05;25.17;;;7.03;;
52414;SDS011;38340;52.964;6.086;2023-07-30T03:09:31;17.67;;;6.47;;
52414;SDS011;38340;52.964;6.086;2023-07-30T03:11:57;21.95;;;6.18;;
52414;SDS011;38340;52.964;6.086;2023-07-30T03:14:24;16.05;;;5.72;;
52414;SDS011;38340;52.964;6.086;2023-07-30T03:16:49;19.90;;;6.65;;
52414;SDS011;38340;52.964;6.086;2023-07-30T03:19:15;25.55;;;7.03;;
52414;SDS011;38340;52.964;6.086;2023-07-30T03:21:42;22.85;;;6.78;;
52414;SDS011;38340;52.964;6.086;2023-07-30T03:24:08;19.30;;;6.20;;
52414;SDS011;38340;52.964;6.086;2023-07-30T03:26:34;26.55;;;6.80;;
52414;SDS011;38340;52.964;6.086;2023-07-30T03:28:59;21.92;;;6.90;;
52414;SDS011;38340;52.964;6.086;2023-07-30T03:31:25;19.38;;;7.50;;
52414;SDS011;38340;52.964;6.086;2023-07-30T03:33:53;25.33;;;8.20;;
52414;SDS011;38340;52.964;6.086;2023-07-30T03:36:19;28.00;;;7.97;;
52414;SDS011;38340;52.964;6.086;2023-07-30T03:38:44;25.20;;;7.13;;
52414;SDS011;38340;52.964;6.086;2023-07-30T03:41:10;17.55;;;6.10;;
52414;SDS011;38340;52.964;6.086;2023-07-30T03:43:36;19.75;;;6.63;;
52414;SDS011;38340;52.964;6.086;2023-07-30T03:46:02;19.30;;;6.63;;
52414;SDS011;38340;52.964;6.086;2023-07-30T03:48:28;23.60;;;7.82;;
52414;SDS011;38340;52.964;6.086;2023-07-30T03:50:54;22.27;;;6.75;;
52414;SDS011;38340;52.964;6.086;2023-07-30T03:53:20;23.42;;;7.18;;
52414;SDS011;38340;52.964;6.086;2023-07-30T03:55:46;25.80;;;6.63;;
52414;SDS011;38340;52.964;6.086;2023-07-30T03:58:12;21.60;;;7.55;;
52414;SDS011;38340;52.964;6.086;2023-07-30T04:00:37;22.08;;;7.13;;
52414;SDS011;38340;52.964;6.086;2023-07-30T04:03:03;25.17;;;6.78;;
52414;SDS011;38340;52.964;6.086;2023-07-30T04:05:29;22.77;;;6.53;;
52414;SDS011;38340;52.964;6.086;2023-07-30T04:07:55;27.52;;;7.95;;
52414;SDS011;38340;52.964;6.086;2023-07-30T04:10:21;21.15;;;6.47;;
52414;SDS011;38340;52.964;6.086;2023-07-30T04:12:47;25.63;;;7.40;;
52414;SDS011;38340;52.964;6.086;2023-07-30T04:15:14;19.35;;;6.72;;
52414;SDS011;38340;52.964;6.086;2023-07-30T04:17:40;18.98;;;6.57;;
52414;SDS011;38340;52.964;6.086;2023-07-30T04:20:05;24.83;;;6.60;;
52414;SDS011;38340;52.964;6.086;2023-07-30T04:22:32;22.67;;;6.05;;
52414;SDS011;38340;52.964;6.086;2023-07-30T04:24:58;23.17;;;6.65;;
52414;SDS011;38340;52.964;6.086;2023-07-30T04:27:23;18.58;;;6.60;;
52414;SDS011;38340;52.964;6.086;2023-07-30T04:29:49;17.30;;;5.63;;
52414;SDS011;38340;52.964;6.086;2023-07-30T04:32:14;20.40;;;6.20;;
52414;SDS011;38340;52.964;6.086;2023-07-30T04:34:40;24.52;;;7.03;;
52414;SDS011;38340;52.964;6.086;2023-07-30T04:37:06;22.48;;;5.75;;
52414;SDS011;38340;52.964;6.086;2023-07-30T04:39:32;20.60;;;6.28;;
52414;SDS011;38340;52.964;6.086;2023-07-30T04:41:58;20.20;;;5.90;;
52414;SDS011;38340;52.964;6.086;2023-07-30T04:44:23;14.85;;;6.15;;
52414;SDS011;38340;52.964;6.086;2023-07-30T04:46:49;17.90;;;6.68;;
52414;SDS011;38340;52.964;6.086;2023-07-30T04:49:15;19.55;;;5.78;;
52414;SDS011;38340;52.964;6.086;2023-07-30T04:51:41;19.20;;;6.18;;
52414;SDS011;38340;52.964;6.086;2023-07-30T04:54:06;16.83;;;6.68;;
52414;SDS011;38340;52.964;6.086;2023-07-30T04:56:32;23.60;;;6.55;;
52414;SDS011;38340;52.964;6.086;2023-07-30T04:58:58;20.45;;;6.50;;
52414;SDS011;38340;52.964;6.086;2023-07-30T05:01:24;21.63;;;5.55;;
52414;SDS011;38340;52.964;6.086;2023-07-30T05:03:50;17.42;;;5.43;;
52414;SDS011;38340;52.964;6.086;2023-07-30T05:06:15;18.63;;;5.28;;
52414;SDS011;38340;52.964;6.086;2023-07-30T05:08:41;16.85;;;6.20;;
52414;SDS011;38340;52.964;6.086;2023-07-30T05:11:07;18.45;;;5.82;;
52414;SDS011;38340;52.964;6.086;2023-07-30T05:13:32;24.00;;;5.95;;
52414;SDS011;38340;52.964;6.086;2023-07-30T05:15:58;19.63;;;6.22;;
52414;SDS011;38340;52.964;6.086;2023-07-30T05:18:24;17.85;;;5.20;;
52414;SDS011;38340;52.964;6.086;2023-07-30T05:20:50;25.40;;;6.40;;
52414;SDS011;38340;52.964;6.086;2023-07-30T05:23:16;18.05;;;5.55;;
52414;SDS011;38340;52.964;6.086;2023-07-30T05:25:41;25.55;;;5.53;;
52414;SDS011;38340;52.964;6.086;2023-07-30T05:28:07;23.23;;;5.70;;
52414;SDS011;38340;52.964;6.086;2023-07-30T05:30:33;17.45;;;4.80;;
52414;SDS011;38340;52.964;6.086;2023-07-30T05:32:58;15.40;;;5.63;;
52414;SDS011;38340;52.964;6.086;2023-07-30T05:35:24;16.48;;;5.38;;
52414;SDS011;38340;52.964;6.086;2023-07-30T05:37:50;17.63;;;5.22;;
52414;SDS011;38340;52.964;6.086;2023-07-30T05:40:16;20.70;;;5.88;;
52414;SDS011;38340;52.964;6.086;2023-07-30T05:42:41;15.98;;;5.10;;
52414;SDS011;38340;52.964;6.086;2023-07-30T05:45:07;12.27;;;4.90;;
52414;SDS011;38340;52.964;6.086;2023-07-30T05:47:33;19.98;;;8.25;;
52414;SDS011;38340;52.964;6.086;2023-07-30T05:49:59;23.73;;;10.35;;
52414;SDS011;38340;52.964;6.086;2023-07-30T05:52:25;22.67;;;9.88;;
52414;SDS011;38340;52.964;6.086;2023-07-30T05:54:50;26.17;;;11.73;;
52414;SDS011;38340;52.964;6.086;2023-07-30T05:57:16;24.88;;;10.57;;
52414;SDS011;38340;52.964;6.086;2023-07-30T05:59:41;30.70;;;13.73;;
52414;SDS011;38340;52.964;6.086;2023-07-30T06:02:07;30.25;;;12.80;;
52414;SDS011;38340;52.964;6.086;2023-07-30T06:04:33;28.30;;;11.88;;
52414;SDS011;38340;52.964;6.086;2023-07-30T06:07:02;22.52;;;8.80;;
52414;SDS011;38340;52.964;6.086;2023-07-30T06:09:28;20.08;;;8.23;;
52414;SDS011;38340;52.964;6.086;2023-07-30T06:11:57;16.05;;;6.18;;
52414;SDS011;38340;52.964;6.086;2023-07-30T06:14:24;14.40;;;4.88;;
52414;SDS011;38340;52.964;6.086;2023-07-30T06:16:50;11.02;;;4.00;;
52414;SDS011;38340;52.964;6.086;2023-07-30T06:19:16;13.10;;;5.93;;
52414;SDS011;38340;52.964;6.086;2023-07-30T06:21:42;13.90;;;4.80;;
52414;SDS011;38340;52.964;6.086;2023-07-30T06:24:08;17.20;;;4.82;;
52414;SDS011;38340;52.964;6.086;2023-07-30T06:26:34;9.02;;;4.18;;
52414;SDS011;38340;52.964;6.086;2023-07-30T06:28:59;13.77;;;4.95;;
52414;SDS011;38340;52.964;6.086;2023-07-30T06:31:25;11.98;;;4.18;;
52414;SDS011;38340;52.964;6.086;2023-07-30T06:33:51;13.52;;;4.43;;
52414;SDS011;38340;52.964;6.086;2023-07-30T06:36:16;12.57;;;4.80;;
52414;SDS011;38340;52.964;6.086;2023-07-30T06:38:42;16.80;;;5.07;;
52414;SDS011;38340;52.964;6.086;2023-07-30T06:41:08;13.85;;;5.03;;
52414;SDS011;38340;52.964;6.086;2023-07-30T06:43:33;13.52;;;4.28;;
52414;SDS011;38340;52.964;6.086;2023-07-30T06:45:59;11.32;;;3.63;;
52414;SDS011;38340;52.964;6.086;2023-07-30T06:48:25;11.02;;;3.22;;
52414;SDS011;38340;52.964;6.086;2023-07-30T06:50:51;14.90;;;4.03;;
52414;SDS011;38340;52.964;6.086;2023-07-30T06:53:16;11.50;;;3.05;;
52414;SDS011;38340;52.964;6.086;2023-07-30T06:55:42;11.40;;;3.38;;
52414;SDS011;38340;52.964;6.086;2023-07-30T06:58:08;7.97;;;2.67;;
52414;SDS011;38340;52.964;6.086;2023-07-30T07:00:34;7.78;;;2.70;;
52414;SDS011;38340;52.964;6.086;2023-07-30T07:02:59;11.60;;;3.05;;
52414;SDS011;38340;52.964;6.086;2023-07-30T07:05:25;12.20;;;3.38;;
52414;SDS011;38340;52.964;6.086;2023-07-30T07:07:51;10.13;;;2.63;;
52414;SDS011;38340;52.964;6.086;2023-07-30T07:10:16;16.05;;;3.35;;
52414;SDS011;38340;52.964;6.086;2023-07-30T07:12:42;7.95;;;2.70;;
52414;SDS011;38340;52.964;6.086;2023-07-30T07:15:08;6.93;;;3.25;;
52414;SDS011;38340;52.964;6.086;2023-07-30T07:17:34;8.65;;;3.03;;
52414;SDS011;38340;52.964;6.086;2023-07-30T07:20:00;7.97;;;2.95;;
52414;SDS011;38340;52.964;6.086;2023-07-30T07:22:26;14.93;;;3.47;;
52414;SDS011;38340;52.964;6.086;2023-07-30T07:24:52;8.35;;;3.13;;
52414;SDS011;38340;52.964;6.086;2023-07-30T07:27:21;7.97;;;3.10;;
52414;SDS011;38340;52.964;6.086;2023-07-30T07:29:49;11.13;;;3.35;;
52414;SDS011;38340;52.964;6.086;2023-07-30T07:32:15;12.60;;;3.20;;
52414;SDS011;38340;52.964;6.086;2023-07-30T07:34:41;11.27;;;3.15;;
52414;SDS011;38340;52.964;6.086;2023-07-30T07:37:06;9.32;;;3.38;;
52414;SDS011;38340;52.964;6.086;2023-07-30T07:39:32;10.57;;;3.33;;
52414;SDS011;38340;52.964;6.086;2023-07-30T07:41:58;5.85;;;2.05;;
52414;SDS011;38340;52.964;6.086;2023-07-30T07:44:24;13.88;;;3.17;;
52414;SDS011;38340;52.964;6.086;2023-07-30T07:46:50;7.95;;;3.03;;
52414;SDS011;38340;52.964;6.086;2023-07-30T07:49:15;9.48;;;3.30;;
52414;SDS011;38340;52.964;6.086;2023-07-30T07:51:41;9.80;;;3.22;;
52414;SDS011;38340;52.964;6.086;2023-07-30T07:54:07;8.63;;;2.97;;
52414;SDS011;38340;52.964;6.086;2023-07-30T07:56:32;11.60;;;3.35;;
52414;SDS011;38340;52.964;6.086;2023-07-30T07:58:58;9.20;;;2.72;;
52414;SDS011;38340;52.964;6.086;2023-07-30T08:01:24;9.43;;;2.92;;
52414;SDS011;38340;52.964;6.086;2023-07-30T08:03:50;6.85;;;2.35;;
52414;SDS011;38340;52.964;6.086;2023-07-30T08:06:16;8.95;;;2.85;;
52414;SDS011;38340;52.964;6.086;2023-07-30T08:08:41;9.60;;;2.58;;
52414;SDS011;38340;52.964;6.086;2023-07-30T08:11:07;9.02;;;2.72;;
52414;SDS011;38340;52.964;6.086;2023-07-30T08:13:34;9.15;;;3.05;;
52414;SDS011;38340;52.964;6.086;2023-07-30T08:16:00;9.95;;;2.80;;
52414;SDS011;38340;52.964;6.086;2023-07-30T08:18:26;10.23;;;2.97;;
52414;SDS011;38340;52.964;6.086;2023-07-30T08:20:53;8.80;;;2.88;;
52414;SDS011;38340;52.964;6.086;2023-07-30T08:23:19;10.43;;;3.25;;
52414;SDS011;38340;52.964;6.086;2023-07-30T08:25:44;8.73;;;2.63;;
52414;SDS011;38340;52.964;6.086;2023-07-30T08:28:10;7.30;;;2.83;;
52414;SDS011;38340;52.964;6.086;2023-07-30T08:30:36;12.45;;;3.17;;
52414;SDS011;38340;52.964;6.086;2023-07-30T08:33:02;8.93;;;3.03;;
52414;SDS011;38340;52.964;6.086;2023-07-30T08:35:28;8.02;;;3.00;;
52414;SDS011;38340;52.964;6.086;2023-07-30T08:37:54;9.70;;;2.92;;
52414;SDS011;38340;52.964;6.086;2023-07-30T08:40:23;8.25;;;2.55;;
52414;SDS011;38340;52.964;6.086;2023-07-30T08:42:50;9.15;;;2.58;;
52414;SDS011;38340;52.964;6.086;2023-07-30T08:45:16;9.57;;;3.17;;
52414;SDS011;38340;52.964;6.086;2023-07-30T08:47:43;9.27;;;3.20;;
52414;SDS011;38340;52.964;6.086;2023-07-30T08:50:09;7.20;;;2.83;;
52414;SDS011;38340;52.964;6.086;2023-07-30T08:52:36;11.10;;;3.03;;
52414;SDS011;38340;52.964;6.086;2023-07-30T08:55:05;9.57;;;2.58;;
52414;SDS011;38340;52.964;6.086;2023-07-30T08:57:31;8.13;;;3.05;;
52414;SDS011;38340;52.964;6.086;2023-07-30T09:00:10;7.43;;;2.72;;
52414;SDS011;38340;52.964;6.086;2023-07-30T09:02:52;5.85;;;2.35;;
52414;SDS011;38340;52.964;6.086;2023-07-30T09:05:20;7.20;;;2.53;;
52414;SDS011;38340;52.964;6.086;2023-07-30T09:07:46;5.13;;;2.50;;
52414;SDS011;38340;52.964;6.086;2023-07-30T09:10:12;9.27;;;3.13;;
52414;SDS011;38340;52.964;6.086;2023-07-30T09:12:39;7.38;;;2.83;;
52414;SDS011;38340;52.964;6.086;2023-07-30T09:15:05;5.82;;;2.42;;
52414;SDS011;38340;52.964;6.086;2023-07-30T09:17:32;11.18;;;3.08;;
52414;SDS011;38340;52.964;6.086;2023-07-30T09:20:01;8.30;;;2.92;;
52414;SDS011;38340;52.964;6.086;2023-07-30T09:22:29;10.18;;;3.00;;
52414;SDS011;38340;52.964;6.086;2023-07-30T09:25:06;7.18;;;2.90;;
52414;SDS011;38340;52.964;6.086;2023-07-30T09:27:32;8.50;;;2.95;;
52414;SDS011;38340;52.964;6.086;2023-07-30T09:29:59;8.32;;;2.65;;
52414;SDS011;38340;52.964;6.086;2023-07-30T09:32:30;8.30;;;2.63;;
52414;SDS011;38340;52.964;6.086;2023-07-30T09:35:04;8.23;;;2.90;;
52414;SDS011;38340;52.964;6.086;2023-07-30T09:37:32;6.63;;;2.50;;
52414;SDS011;38340;52.964;6.086;2023-07-30T09:40:01;8.70;;;2.60;;
52414;SDS011;38340;52.964;6.086;2023-07-30T09:42:27;8.65;;;2.72;;
52414;SDS011;38340;52.964;6.086;2023-07-30T09:44:53;9.38;;;3.15;;
52414;SDS011;38340;52.964;6.086;2023-07-30T09:47:23;9.50;;;3.90;;
52414;SDS011;38340;52.964;6.086;2023-07-30T09:49:51;8.02;;;2.88;;
52414;SDS011;38340;52.964;6.086;2023-07-30T09:52:18;6.65;;;2.92;;
52414;SDS011;38340;52.964;6.086;2023-07-30T09:54:44;8.88;;;3.00;;
52414;SDS011;38340;52.964;6.086;2023-07-30T09:57:10;7.72;;;3.20;;
52414;SDS011;38340;52.964;6.086;2023-07-30T09:59:36;8.95;;;3.70;;
52414;SDS011;38340;52.964;6.086;2023-07-30T10:02:03;7.60;;;3.10;;
52414;SDS011;38340;52.964;6.086;2023-07-30T10:04:30;9.80;;;2.58;;
52414;SDS011;38340;52.964;6.086;2023-07-30T10:07:16;9.27;;;2.88;;
52414;SDS011;38340;52.964;6.086;2023-07-30T10:09:45;9.80;;;3.50;;
52414;SDS011;38340;52.964;6.086;2023-07-30T10:12:14;8.68;;;2.88;;
52414;SDS011;38340;52.964;6.086;2023-07-30T10:14:43;6.05;;;2.58;;
52414;SDS011;38340;52.964;6.086;2023-07-30T10:17:09;7.03;;;2.83;;
52414;SDS011;38340;52.964;6.086;2023-07-30T10:19:36;8.02;;;2.72;;
52414;SDS011;38340;52.964;6.086;2023-07-30T10:27:23;8.77;;;3.00;;
52414;SDS011;38340;52.964;6.086;2023-07-30T10:29:50;9.18;;;2.80;;
52414;SDS011;38340;52.964;6.086;2023-07-30T10:35:36;12.43;;;2.92;;
52414;SDS011;38340;52.964;6.086;2023-07-30T10:38:22;9.80;;;2.67;;
52414;SDS011;38340;52.964;6.086;2023-07-30T10:43:30;9.32;;;3.15;;
52414;SDS011;38340;52.964;6.086;2023-07-30T10:45:59;7.78;;;3.05;;
52414;SDS011;38340;52.964;6.086;2023-07-30T10:48:35;9.15;;;2.38;;
52414;SDS011;38340;52.964;6.086;2023-07-30T10:51:03;8.18;;;2.40;;
52414;SDS011;38340;52.964;6.086;2023-07-30T10:53:33;6.78;;;2.65;;
52414;SDS011;38340;52.964;6.086;2023-07-30T10:56:12;8.75;;;3.05;;
52414;SDS011;38340;52.964;6.086;2023-07-30T10:58:38;10.68;;;2.70;;
52414;SDS011;38340;52.964;6.086;2023-07-30T11:01:04;5.75;;;2.50;;
52414;SDS011;38340;52.964;6.086;2023-07-30T11:03:31;7.68;;;2.90;;
52414;SDS011;38340;52.964;6.086;2023-07-30T11:05:57;11.15;;;2.50;;
52414;SDS011;38340;52.964;6.086;2023-07-30T11:08:33;11.98;;;2.85;;
52414;SDS011;38340;52.964;6.086;2023-07-30T11:11:06;12.93;;;3.38;;
52414;SDS011;38340;52.964;6.086;2023-07-30T11:13:37;8.30;;;3.10;;
52414;SDS011;38340;52.964;6.086;2023-07-30T11:16:08;6.68;;;2.17;;
52414;SDS011;38340;52.964;6.086;2023-07-30T11:18:35;10.50;;;2.72;;
52414;SDS011;38340;52.964;6.086;2023-07-30T11:21:06;6.68;;;2.40;;
52414;SDS011;38340;52.964;6.086;2023-07-30T11:23:33;7.32;;;2.47;;
52414;SDS011;38340;52.964;6.086;2023-07-30T11:26:04;6.43;;;2.42;;
52414;SDS011;38340;52.964;6.086;2023-07-30T11:28:32;8.95;;;2.78;;
52414;SDS011;38340;52.964;6.086;2023-07-30T11:31:02;7.82;;;2.40;;
52414;SDS011;38340;52.964;6.086;2023-07-30T11:33:33;9.07;;;3.03;;
52414;SDS011;38340;52.964;6.086;2023-07-30T11:36:04;12.35;;;3.08;;
52414;SDS011;38340;52.964;6.086;2023-07-30T11:38:32;8.52;;;2.63;;
52414;SDS011;38340;52.964;6.086;2023-07-30T11:40:59;8.70;;;2.33;;
52414;SDS011;38340;52.964;6.086;2023-07-30T11:43:25;6.85;;;2.70;;
52414;SDS011;38340;52.964;6.086;2023-07-30T11:46:06;8.80;;;2.80;;
52414;SDS011;38340;52.964;6.086;2023-07-30T11:48:33;8.52;;;2.67;;
52414;SDS011;38340;52.964;6.086;2023-07-30T11:50:59;12.27;;;3.25;;
52414;SDS011;38340;52.964;6.086;2023-07-30T11:53:43;6.13;;;2.58;;
52414;SDS011;38340;52.964;6.086;2023-07-30T11:58:50;8.68;;;3.13;;
52414;SDS011;38340;52.964;6.086;2023-07-30T12:01:18;9.95;;;3.05;;
52414;SDS011;38340;52.964;6.086;2023-07-30T12:03:44;8.43;;;2.70;;
52414;SDS011;38340;52.964;6.086;2023-07-30T12:06:11;6.95;;;3.15;;
52414;SDS011;38340;52.964;6.086;2023-07-30T12:08:37;6.10;;;3.05;;
52414;SDS011;38340;52.964;6.086;2023-07-30T12:11:03;15.48;;;3.10;;
52414;SDS011;38340;52.964;6.086;2023-07-30T12:13:30;11.35;;;3.72;;
52414;SDS011;38340;52.964;6.086;2023-07-30T12:15:56;8.32;;;3.05;;
52414;SDS011;38340;52.964;6.086;2023-07-30T12:18:23;8.30;;;2.88;;
52414;SDS011;38340;52.964;6.086;2023-07-30T12:20:49;8.00;;;3.10;;
52414;SDS011;38340;52.964;6.086;2023-07-30T12:23:16;10.15;;;3.25;;
52414;SDS011;38340;52.964;6.086;2023-07-30T12:25:42;10.90;;;2.92;;
52414;SDS011;38340;52.964;6.086;2023-07-30T12:28:08;11.52;;;3.60;;
52414;SDS011;38340;52.964;6.086;2023-07-30T12:30:34;9.40;;;3.60;;
52414;SDS011;38340;52.964;6.086;2023-07-30T12:33:02;9.68;;;3.22;;
52414;SDS011;38340;52.964;6.086;2023-07-30T12:35:29;9.98;;;3.25;;
52414;SDS011;38340;52.964;6.086;2023-07-30T12:37:55;5.68;;;2.50;;
52414;SDS011;38340;52.964;6.086;2023-07-30T12:40:21;8.02;;;2.47;;
52414;SDS011;38340;52.964;6.086;2023-07-30T12:42:46;9.50;;;2.30;;
52414;SDS011;38340;52.964;6.086;2023-07-30T12:45:12;5.90;;;2.63;;
52414;SDS011;38340;52.964;6.086;2023-07-30T12:47:38;8.15;;;2.47;;
52414;SDS011;38340;52.964;6.086;2023-07-30T12:50:04;7.55;;;2.40;;
52414;SDS011;38340;52.964;6.086;2023-07-30T12:52:31;6.65;;;2.72;;
52414;SDS011;38340;52.964;6.086;2023-07-30T12:54:58;12.38;;;2.50;;
52414;SDS011;38340;52.964;6.086;2023-07-30T12:57:24;5.70;;;2.13;;
52414;SDS011;38340;52.964;6.086;2023-07-30T12:59:50;8.23;;;2.53;;
52414;SDS011;38340;52.964;6.086;2023-07-30T13:02:16;6.25;;;2.40;;
52414;SDS011;38340;52.964;6.086;2023-07-30T13:04:41;6.07;;;2.92;;
52414;SDS011;38340;52.964;6.086;2023-07-30T13:07:07;9.23;;;2.78;;
52414;SDS011;38340;52.964;6.086;2023-07-30T13:09:33;9.18;;;2.78;;
52414;SDS011;38340;52.964;6.086;2023-07-30T13:11:58;10.48;;;2.60;;
52414;SDS011;38340;52.964;6.086;2023-07-30T13:14:24;8.38;;;3.50;;
52414;SDS011;38340;52.964;6.086;2023-07-30T13:16:50;6.40;;;2.60;;
52414;SDS011;38340;52.964;6.086;2023-07-30T13:19:15;7.03;;;2.40;;
52414;SDS011;38340;52.964;6.086;2023-07-30T13:21:41;8.20;;;2.78;;
52414;SDS011;38340;52.964;6.086;2023-07-30T13:24:07;6.88;;;2.15;;
52414;SDS011;38340;52.964;6.086;2023-07-30T13:26:33;9.25;;;3.33;;
52414;SDS011;38340;52.964;6.086;2023-07-30T13:28:59;8.32;;;2.70;;
52414;SDS011;38340;52.964;6.086;2023-07-30T13:31:25;7.18;;;2.40;;
52414;SDS011;38340;52.964;6.086;2023-07-30T13:33:51;6.80;;;2.58;;
52414;SDS011;38340;52.964;6.086;2023-07-30T13:36:17;7.55;;;2.75;;
52414;SDS011;38340;52.964;6.086;2023-07-30T13:38:43;9.45;;;3.55;;
52414;SDS011;38340;52.964;6.086;2023-07-30T13:41:09;10.70;;;2.70;;
52414;SDS011;38340;52.964;6.086;2023-07-30T13:43:35;5.63;;;2.58;;
52414;SDS011;38340;52.964;6.086;2023-07-30T13:46:01;6.80;;;2.25;;
52414;SDS011;38340;52.964;6.086;2023-07-30T13:48:26;8.13;;;2.40;;
52414;SDS011;38340;52.964;6.086;2023-07-30T13:50:52;7.65;;;2.97;;
52414;SDS011;38340;52.964;6.086;2023-07-30T13:53:19;7.45;;;2.92;;
52414;SDS011;38340;52.964;6.086;2023-07-30T13:55:44;7.72;;;2.70;;
52414;SDS011;38340;52.964;6.086;2023-07-30T13:58:10;5.45;;;2.40;;
52414;SDS011;38340;52.964;6.086;2023-07-30T14:00:36;6.75;;;2.55;;
52414;SDS011;38340;52.964;6.086;2023-07-30T14:03:04;8.65;;;2.45;;
52414;SDS011;38340;52.964;6.086;2023-07-30T14:05:30;10.15;;;2.67;;
52414;SDS011;38340;52.964;6.086;2023-07-30T14:07:56;6.57;;;2.30;;
52414;SDS011;38340;52.964;6.086;2023-07-30T14:10:25;7.63;;;2.42;;
52414;SDS011;38340;52.964;6.086;2023-07-30T14:12:52;3.15;;;1.80;;
52414;SDS011;38340;52.964;6.086;2023-07-30T14:15:18;3.97;;;1.92;;
52414;SDS011;38340;52.964;6.086;2023-07-30T14:17:43;5.05;;;2.15;;
52414;SDS011;38340;52.964;6.086;2023-07-30T14:20:09;8.50;;;2.72;;
52414;SDS011;38340;52.964;6.086;2023-07-30T14:22:35;8.18;;;2.00;;
52414;SDS011;38340;52.964;6.086;2023-07-30T14:25:01;7.00;;;2.25;;
52414;SDS011;38340;52.964;6.086;2023-07-30T14:27:27;7.18;;;2.38;;
52414;SDS011;38340;52.964;6.086;2023-07-30T14:29:53;7.72;;;2.85;;
52414;SDS011;38340;52.964;6.086;2023-07-30T14:32:19;7.57;;;2.70;;
52414;SDS011;38340;52.964;6.086;2023-07-30T14:34:45;5.80;;;2.33;;
52414;SDS011;38340;52.964;6.086;2023-07-30T14:37:11;6.93;;;2.40;;
52414;SDS011;38340;52.964;6.086;2023-07-30T14:39:37;8.70;;;2.60;;
52414;SDS011;38340;52.964;6.086;2023-07-30T14:42:03;6.32;;;2.35;;
52414;SDS011;38340;52.964;6.086;2023-07-30T14:44:29;5.80;;;2.47;;
52414;SDS011;38340;52.964;6.086;2023-07-30T14:46:54;5.47;;;2.10;;
52414;SDS011;38340;52.964;6.086;2023-07-30T14:49:22;7.53;;;2.15;;
52414;SDS011;38340;52.964;6.086;2023-07-30T14:51:47;6.07;;;2.05;;